Time;durP1;ratioP1;P1;durP2;ratioP2;P2;SDS_P1;SDS_P2;PMS_P1;PMS_P2;Temp;Humidity;BMP_temperature;BMP_pressure;BME280_temperature;BME280_humidity;BME280_pressure;Samples;Min_cycle;Max_cycle;Signal;HPM_P1;HPM_P2
2023/08/29 00:00:40;;;;;;;;;;;;;;;18.47;66.87;100512.50;4196766;28;20031;-70
2023/08/29 00:02:43;;;;;;;;;;;;;;;18.47;66.89;100517.97;4196077;28;20022;-70
2023/08/29 00:04:46;;;;;;;;;;;;;;;18.47;66.89;100501.56;4189567;28;20018;-70
2023/08/29 00:06:48;;;;;;;;;;;;;;;18.47;67.02;100489.81;4197301;28;20039;-70
2023/08/29 00:08:50;;;;;;;;;;;;;;;18.47;66.87;100489.81;4195236;28;20036;-70
2023/08/29 00:10:55;;;;;;;;;;;;;;;18.46;66.91;100490.88;4194465;28;20024;-70
2023/08/29 00:12:58;;;;;;;;;;;;;;;18.45;66.97;100494.66;4196596;28;20022;-69
2023/08/29 00:15:00;;;;;;;;;;;;;;;18.45;66.99;100502.88;4196419;28;20466;-69
2023/08/29 00:17:04;;;;;;;;;;;;;;;18.45;67.08;100486.47;4196630;28;19924;-70
2023/08/29 00:19:06;;;;;;;;;;;;;;;18.44;67.31;100501.22;4196463;28;20032;-70
2023/08/29 00:21:09;;;;;;;;;;;;;;;18.43;67.31;100496.81;4194893;28;20019;-70
2023/08/29 00:23:11;;;;;;;;;;;;;;;18.42;67.31;100503.38;4196314;28;20011;-70
2023/08/29 00:25:13;;;;;;;;;;;;;;;18.41;67.43;100518.91;4196288;28;20015;-70
2023/08/29 00:27:15;;;;;;;;;;;;;;;18.40;67.58;100508.22;4196383;28;19999;-70
2023/08/29 00:29:17;;;;;;;;;;;;;;;18.40;67.42;100502.75;4196431;28;20011;-69
2023/08/29 00:31:19;;;;;;;;;;;;;;;18.40;67.74;100502.75;4196366;28;20429;-70
2023/08/29 00:33:22;;;;;;;;;;;;;;;18.40;67.64;100502.75;4195176;28;20021;-70
2023/08/29 00:35:23;;;;;;;;;;;;;;;18.40;67.55;100478.13;4196259;28;20016;-70
2023/08/29 00:37:26;;;;;;;;;;;;;;;18.39;67.73;100481.97;4196296;28;20346;-70
2023/08/29 00:39:30;;;;;;;;;;;;;;;18.38;67.55;100478.38;4194039;28;20015;-70
2023/08/29 00:41:32;;;;;;;;;;;;;;;18.38;67.62;100475.63;4178360;28;19956;-70
2023/08/29 00:43:34;;;;;;;;;;;;;;;18.37;67.76;100474.81;4196381;28;20016;-70
2023/08/29 00:45:37;;;;;;;;;;;;;;;18.37;67.73;100479.47;4195711;28;20023;-70
2023/08/29 00:47:39;;;;;;;;;;;;;;;18.36;67.81;100484.06;4168797;28;20035;-70
2023/08/29 00:49:41;;;;;;;;;;;;;;;18.36;67.51;100480.50;4187416;28;20039;-70
2023/08/29 00:51:43;;;;;;;;;;;;;;;18.37;67.71;100490.41;4194654;28;20022;-70
2023/08/29 00:53:50;;;;;;;;;;;;;;;18.36;67.37;100492.28;4202856;28;19952;-68
2023/08/29 00:55:52;;;;;;;;;;;;;;;18.36;67.55;100491.44;4212143;28;20028;-68
2023/08/29 00:57:56;;;;;;;;;;;;;;;18.36;67.57;100483.25;4195384;28;19935;-68
2023/08/29 00:59:58;;;;;;;;;;;;;;;18.35;67.63;100487.91;4182605;28;20019;-68
2023/08/29 01:02:00;;;;;;;;;;;;;;;18.36;67.41;100467.66;4195242;28;20039;-69
2023/08/29 01:04:04;;;;;;;;;;;;;;;18.36;67.49;100470.41;4187889;28;20023;-68
2023/08/29 01:06:06;;;;;;;;;;;;;;;18.35;67.78;100470.63;4191639;28;20023;-68
2023/08/29 01:08:09;;;;;;;;;;;;;;;18.35;67.66;100473.38;4194526;28;20019;-68
2023/08/29 01:10:11;;;;;;;;;;;;;;;18.34;67.77;100478.00;4194449;28;20024;-68
2023/08/29 01:12:16;;;;;;;;;;;;;;;18.35;67.60;100479.69;4194007;28;20016;-68
2023/08/29 01:14:20;;;;;;;;;;;;;;;18.34;67.93;100480.75;4194399;28;20015;-68
2023/08/29 01:16:23;;;;;;;;;;;;;;;18.35;67.89;100496.09;4193930;28;20024;-68
2023/08/29 01:18:24;;;;;;;;;;;;;;;18.35;67.77;100493.38;4194142;28;20074;-68
2023/08/29 01:20:27;;;;;;;;;;;;;;;18.34;68.05;100488.94;4194053;28;20016;-68
2023/08/29 01:22:29;;;;;;;;;;;;;;;18.35;67.94;100482.44;4194790;28;20027;-68
2023/08/29 01:24:33;;;;;;;;;;;;;;;18.34;67.91;100471.72;4196317;28;20019;-68
2023/08/29 01:26:37;;;;;;;;;;;;;;;18.35;68.03;100478.84;4187568;28;20020;-68
2023/08/29 01:28:39;;;;;;;;;;;;;;;18.35;67.94;100465.16;4193777;28;20027;-67
2023/08/29 01:30:42;;;;;;;;;;;;;;;18.34;67.89;100464.34;4195544;28;20019;-68
2023/08/29 01:32:44;;;;;;;;;;;;;;;18.34;67.89;100477.19;4195710;28;20019;-68
2023/08/29 01:34:46;;;;;;;;;;;;;;;18.34;67.94;100486.22;4194901;28;19939;-68
2023/08/29 01:36:48;;;;;;;;;;;;;;;18.36;67.98;100499.66;4195623;28;20026;-68
2023/08/29 01:38:49;;;;;;;;;;;;;;;18.35;67.95;100501.56;4193791;28;19971;-68
2023/08/29 01:40:52;;;;;;;;;;;;;;;18.34;68.19;100505.34;4192517;28;20011;-68
2023/08/29 01:42:54;;;;;;;;;;;;;;;18.33;67.96;100503.69;4193643;28;20363;-68
2023/08/29 01:44:56;;;;;;;;;;;;;;;18.33;68.14;100492.75;4195076;28;20019;-68
2023/08/29 01:46:58;;;;;;;;;;;;;;;18.34;68.11;100486.22;4194640;28;20287;-68
2023/08/29 01:49:01;;;;;;;;;;;;;;;18.33;67.90;100479.06;4193283;28;20030;-68
2023/08/29 01:51:04;;;;;;;;;;;;;;;18.33;68.12;100475.53;4194875;28;20011;-68
2023/08/29 01:53:06;;;;;;;;;;;;;;;18.34;68.12;100471.72;4194282;28;20019;-68
2023/08/29 01:55:08;;;;;;;;;;;;;;;18.33;67.82;100465.41;4194450;28;19940;-68
2023/08/29 01:57:10;;;;;;;;;;;;;;;18.33;68.03;100470.88;4195325;28;20011;-68
2023/08/29 01:59:14;;;;;;;;;;;;;;;18.32;68.11;100474.69;4193847;28;20015;-68
2023/08/29 02:01:17;;;;;;;;;;;;;;;18.32;68.10;100466.50;4194288;28;20019;-68
2023/08/29 02:03:19;;;;;;;;;;;;;;;18.32;68.11;100454.72;4195298;28;20043;-68
2023/08/29 02:05:21;;;;;;;;;;;;;;;18.32;68.01;100446.50;4192867;28;20476;-68
2023/08/29 02:07:22;;;;;;;;;;;;;;;18.32;68.05;100452.81;4193849;28;20035;-68
2023/08/29 02:09:24;;;;;;;;;;;;;;;18.32;68.04;100450.09;4191139;28;20426;-68
2023/08/29 02:11:26;;;;;;;;;;;;;;;18.33;67.98;100445.44;4193105;28;20019;-68
2023/08/29 02:13:33;;;;;;;;;;;;;;;18.32;68.09;100452.81;4177692;28;20023;-68
2023/08/29 02:15:36;;;;;;;;;;;;;;;18.31;68.12;100459.34;4194198;28;19928;-68
2023/08/29 02:17:38;;;;;;;;;;;;;;;18.31;68.35;100459.34;4193346;28;20023;-68
2023/08/29 02:19:46;;;;;;;;;;;;;;;18.32;68.18;100465.63;4194950;28;20822;-68
2023/08/29 02:21:48;;;;;;;;;;;;;;;18.31;68.36;100466.72;4194751;28;20382;-68
2023/08/29 02:23:51;;;;;;;;;;;;;;;18.31;68.02;100455.78;4193833;28;20015;-69
2023/08/29 02:26:00;;;;;;;;;;;;;;;18.31;67.95;100461.25;4177604;28;20028;-69
2023/08/29 02:28:03;;;;;;;;;;;;;;;18.31;67.89;100455.78;4193355;28;20406;-68
2023/08/29 02:30:05;;;;;;;;;;;;;;;18.30;68.31;100460.41;4182906;28;20027;-68
2023/08/29 02:32:09;;;;;;;;;;;;;;;18.30;68.23;100465.88;4194158;28;20008;-68
2023/08/29 02:34:11;;;;;;;;;;;;;;;18.30;68.38;100463.13;4193109;28;20028;-68
2023/08/29 02:36:13;;;;;;;;;;;;;;;18.31;68.54;100458.53;4193987;28;20541;-68
2023/08/29 02:38:15;;;;;;;;;;;;;;;18.32;68.32;100457.44;4195991;28;20011;-68
2023/08/29 02:40:20;;;;;;;;;;;;;;;18.31;68.30;100466.72;4195297;28;20011;-68
2023/08/29 02:42:22;;;;;;;;;;;;;;;18.30;68.63;100465.88;4198548;28;20061;-68
2023/08/29 02:44:24;;;;;;;;;;;;;;;18.30;68.61;100460.41;4197757;28;20015;-69
2023/08/29 02:46:26;;;;;;;;;;;;;;;18.29;68.40;100464.22;4198046;28;20011;-68
2023/08/29 02:48:30;;;;;;;;;;;;;;;18.28;68.19;100454.34;4197014;28;20035;-68
2023/08/29 02:50:32;;;;;;;;;;;;;;;18.29;68.59;100449.72;4197673;28;20027;-68
2023/08/29 02:52:34;;;;;;;;;;;;;;;18.30;68.55;100449.47;4197808;28;20023;-68
2023/08/29 02:54:36;;;;;;;;;;;;;;;18.30;68.19;100451.38;4197529;28;20023;-68
2023/08/29 02:56:38;;;;;;;;;;;;;;;18.29;68.59;100446.97;4197390;28;19932;-68
2023/08/29 02:58:39;;;;;;;;;;;;;;;18.28;68.34;100443.41;4197519;28;20454;-68
2023/08/29 03:00:42;;;;;;;;;;;;;;;18.27;68.38;100444.47;4196957;28;20026;-68
2023/08/29 03:02:44;;;;;;;;;;;;;;;18.28;68.46;100450.78;4196632;28;20028;-68
2023/08/29 03:04:48;;;;;;;;;;;;;;;18.28;68.57;100437.94;4197066;28;20036;-68
2023/08/29 03:06:51;;;;;;;;;;;;;;;18.27;68.41;100433.53;4197417;28;20023;-68
2023/08/29 03:08:54;;;;;;;;;;;;;;;18.27;68.34;100422.59;4196556;28;20019;-68
2023/08/29 03:10:56;;;;;;;;;;;;;;;18.29;68.30;100425.97;4195566;28;20026;-68
2023/08/29 03:12:58;;;;;;;;;;;;;;;18.27;68.24;100410.84;4196211;28;20016;-68
2023/08/29 03:15:00;;;;;;;;;;;;;;;18.26;68.35;100418.22;4196681;28;20015;-68
2023/08/29 03:17:03;;;;;;;;;;;;;;;18.26;68.41;100414.63;4197341;28;19933;-68
2023/08/29 03:19:05;;;;;;;;;;;;;;;18.25;68.15;100396.59;4173092;28;19979;-68
2023/08/29 03:21:08;;;;;;;;;;;;;;;18.25;68.18;100391.94;4196542;28;20150;-68
2023/08/29 03:23:11;;;;;;;;;;;;;;;18.24;68.11;100387.53;4196857;28;20026;-68
2023/08/29 03:25:14;;;;;;;;;;;;;;;18.24;68.09;100392.19;4197688;28;20020;-69
2023/08/29 03:27:17;;;;;;;;;;;;;;;18.24;68.42;100389.44;4196753;28;20026;-69
2023/08/29 03:29:19;;;;;;;;;;;;;;;18.23;68.16;100388.63;4196639;28;20020;-68
2023/08/29 03:31:21;;;;;;;;;;;;;;;18.23;68.28;100385.03;4197418;28;20019;-68
2023/08/29 03:33:23;;;;;;;;;;;;;;;18.23;68.22;100382.31;4194656;28;20023;-68
2023/08/29 03:35:25;;;;;;;;;;;;;;;18.23;68.20;100385.91;4196414;28;20474;-68
2023/08/29 03:37:29;;;;;;;;;;;;;;;18.24;68.20;100378.53;4196836;28;19932;-68
2023/08/29 03:39:33;;;;;;;;;;;;;;;18.23;67.99;100371.38;4195813;28;19979;-68
2023/08/29 03:41:35;;;;;;;;;;;;;;;18.24;68.15;100376.59;4213186;28;20023;-68
2023/08/29 03:43:37;;;;;;;;;;;;;;;18.23;68.55;100372.22;4195839;28;20015;-68
2023/08/29 03:45:38;;;;;;;;;;;;;;;18.24;68.02;100373.06;4197726;28;20007;-68
2023/08/29 03:47:40;;;;;;;;;;;;;;;18.23;68.28;100368.66;4195327;28;20023;-68
2023/08/29 03:49:42;;;;;;;;;;;;;;;18.21;68.15;100357.94;4193391;28;20408;-68
2023/08/29 03:51:45;;;;;;;;;;;;;;;18.21;68.25;100357.94;4195850;28;20023;-68
2023/08/29 03:53:48;;;;;;;;;;;;;;;18.19;68.19;100349.16;4212517;28;20445;-68
2023/08/29 03:55:50;;;;;;;;;;;;;;;18.19;68.18;100358.19;4196522;28;20019;-68
2023/08/29 03:57:52;;;;;;;;;;;;;;;18.20;67.99;100364.50;4179271;28;20474;-68
2023/08/29 03:59:55;;;;;;;;;;;;;;;18.19;68.24;100365.56;4196015;28;20023;-68
2023/08/29 04:01:57;;;;;;;;;;;;;;;18.18;68.29;100359.28;4195545;28;20023;-68
2023/08/29 04:03:59;;;;;;;;;;;;;;;18.18;68.18;100362.00;4196215;28;20023;-68
2023/08/29 04:06:01;;;;;;;;;;;;;;;18.18;68.17;100363.88;4196854;28;20027;-68
2023/08/29 04:08:03;;;;;;;;;;;;;;;18.17;68.16;100360.34;4194922;28;20051;-68
2023/08/29 04:10:06;;;;;;;;;;;;;;;18.17;68.12;100357.59;4202943;28;20086;-70
2023/08/29 04:12:10;;;;;;;;;;;;;;;18.16;68.45;100358.66;4195016;28;20035;-69
2023/08/29 04:14:12;;;;;;;;;;;;;;;18.15;68.31;100362.47;4196171;28;20015;-70
2023/08/29 04:16:15;;;;;;;;;;;;;;;18.14;68.21;100362.72;4195439;28;20367;-69
2023/08/29 04:18:17;;;;;;;;;;;;;;;18.14;68.28;100374.47;4195905;28;19931;-69
2023/08/29 04:20:19;;;;;;;;;;;;;;;18.14;68.20;100373.66;4195439;28;20388;-70
2023/08/29 04:22:21;;;;;;;;;;;;;;;18.13;68.35;100369.25;4196606;28;20034;-69
2023/08/29 04:24:24;;;;;;;;;;;;;;;18.13;68.26;100366.50;4195730;28;20042;-70
2023/08/29 04:26:30;;;;;;;;;;;;;;;18.13;68.03;100370.06;4195646;28;20019;-70
2023/08/29 04:28:32;;;;;;;;;;;;;;;18.14;68.21;100373.66;4196294;28;20047;-70
2023/08/29 04:30:35;;;;;;;;;;;;;;;18.11;68.23;100366.75;4194870;28;20031;-70
2023/08/29 04:32:37;;;;;;;;;;;;;;;18.12;68.16;100368.41;4194757;28;20477;-70
2023/08/29 04:34:39;;;;;;;;;;;;;;;18.12;68.32;100370.28;4193316;28;20545;-70
2023/08/29 04:36:42;;;;;;;;;;;;;;;18.12;68.29;100370.28;4196063;28;20030;-70
2023/08/29 04:38:45;;;;;;;;;;;;;;;18.12;68.30;100375.75;4192254;28;19929;-70
2023/08/29 04:40:47;;;;;;;;;;;;;;;18.10;68.28;100375.19;4192915;28;20018;-70
2023/08/29 04:42:50;;;;;;;;;;;;;;;18.09;68.11;100379.00;4195414;28;20018;-70
2023/08/29 04:44:53;;;;;;;;;;;;;;;18.09;68.12;100377.09;4195402;28;20007;-70
2023/08/29 04:46:56;;;;;;;;;;;;;;;18.09;68.18;100374.34;4194005;28;20028;-70
2023/08/29 04:48:57;;;;;;;;;;;;;;;18.08;68.34;100380.06;4192734;28;20027;-69
2023/08/29 04:51:09;;;;;;;;;;;;;;;18.07;68.41;100387.44;4170687;28;20207;-69
2023/08/29 04:53:12;;;;;;;;;;;;;;;18.06;68.22;100380.28;4194367;28;20027;-69
2023/08/29 04:55:14;;;;;;;;;;;;;;;18.06;68.36;100380.28;4203009;28;20617;-69
2023/08/29 04:57:16;;;;;;;;;;;;;;;18.06;68.46;100372.09;4194717;28;20023;-69
2023/08/29 04:59:20;;;;;;;;;;;;;;;18.06;68.13;100379.47;4203585;28;19923;-69
2023/08/29 05:01:22;;;;;;;;;;;;;;;18.05;68.34;100378.63;4195129;28;20027;-69
2023/08/29 05:03:24;;;;;;;;;;;;;;;18.06;68.40;100376.72;4194724;28;20011;-70
2023/08/29 05:05:26;;;;;;;;;;;;;;;18.05;68.46;100377.78;4194944;28;20015;-70
2023/08/29 05:07:28;;;;;;;;;;;;;;;18.05;68.52;100384.06;4194179;28;20047;-70
2023/08/29 05:09:30;;;;;;;;;;;;;;;18.06;68.62;100384.94;4192523;28;20447;-69
2023/08/29 05:11:32;;;;;;;;;;;;;;;18.04;68.47;100385.16;4192673;28;20011;-69
2023/08/29 05:13:34;;;;;;;;;;;;;;;18.04;68.35;100387.91;4192615;28;20379;-69
2023/08/29 05:15:37;;;;;;;;;;;;;;;18.04;68.45;100379.69;4194280;28;20019;-68
2023/08/29 05:17:40;;;;;;;;;;;;;;;18.04;68.49;100379.69;4191056;28;20481;-68
2023/08/29 05:19:42;;;;;;;;;;;;;;;18.04;68.58;100381.59;4187601;28;19932;-69
2023/08/29 05:21:44;;;;;;;;;;;;;;;18.03;68.31;100383.50;4191534;28;20024;-69
2023/08/29 05:23:47;;;;;;;;;;;;;;;18.04;68.63;100384.31;4209343;28;20015;-69
2023/08/29 05:25:49;;;;;;;;;;;;;;;18.04;68.55;100382.44;4193949;28;20023;-69
2023/08/29 05:27:51;;;;;;;;;;;;;;;18.05;68.41;100380.53;4193750;28;20023;-68
2023/08/29 05:29:53;;;;;;;;;;;;;;;18.05;68.54;100375.88;4192834;28;20023;-69
2023/08/29 05:31:56;;;;;;;;;;;;;;;18.04;68.52;100367.91;4195445;28;20062;-68
2023/08/29 05:33:58;;;;;;;;;;;;;;;18.04;68.49;100368.78;4194176;28;20434;-69
2023/08/29 05:36:00;;;;;;;;;;;;;;;18.04;68.71;100363.31;4194635;28;20030;-68
2023/08/29 05:38:01;;;;;;;;;;;;;;;18.05;68.47;100361.41;4192882;28;20040;-69
2023/08/29 05:40:05;;;;;;;;;;;;;;;18.04;68.66;100368.78;4193989;28;20615;-69
2023/08/29 05:42:08;;;;;;;;;;;;;;;18.06;68.99;100366.63;4193774;28;20023;-68
2023/08/29 05:44:10;;;;;;;;;;;;;;;18.05;68.89;100369.59;4193531;28;20020;-69
2023/08/29 05:46:12;;;;;;;;;;;;;;;18.06;69.13;100371.28;4194442;28;20020;-69
2023/08/29 05:48:15;;;;;;;;;;;;;;;18.04;69.13;100366.03;4194950;28;20019;-69
2023/08/29 05:50:17;;;;;;;;;;;;;;;18.03;69.25;100369.81;4194590;28;20019;-69
2023/08/29 05:52:19;;;;;;;;;;;;;;;18.05;69.29;100380.53;4194737;28;20032;-69
2023/08/29 05:54:22;;;;;;;;;;;;;;;18.04;69.47;100381.59;4192475;28;20019;-69
2023/08/29 05:56:25;;;;;;;;;;;;;;;18.05;69.65;100383.25;4193986;28;20015;-69
2023/08/29 05:58:27;;;;;;;;;;;;;;;18.04;69.50;100395.25;4192650;28;19932;-69
2023/08/29 06:00:32;;;;;;;;;;;;;;;18.03;69.51;100388.97;4194629;28;20395;-69
2023/08/29 06:02:34;;;;;;;;;;;;;;;18.04;69.62;100395.25;4194438;28;20346;-69
2023/08/29 06:04:38;;;;;;;;;;;;;;;18.04;69.91;100396.09;4193256;28;20027;-69
2023/08/29 06:06:40;;;;;;;;;;;;;;;18.04;69.70;100395.25;4193925;28;20022;-69
2023/08/29 06:08:42;;;;;;;;;;;;;;;18.03;69.69;100394.41;4193344;28;20026;-69
2023/08/29 06:10:44;;;;;;;;;;;;;;;18.05;69.70;100386.00;4192989;28;20015;-69
2023/08/29 06:12:46;;;;;;;;;;;;;;;18.03;69.83;100388.97;4193246;28;20047;-69
2023/08/29 06:14:48;;;;;;;;;;;;;;;18.03;69.72;100382.66;4194680;28;20008;-69
2023/08/29 06:16:50;;;;;;;;;;;;;;;18.03;70.06;100380.75;4195011;28;20458;-69
2023/08/29 06:18:52;;;;;;;;;;;;;;;18.03;70.12;100371.75;4194914;28;20347;-68
2023/08/29 06:20:57;;;;;;;;;;;;;;;18.03;70.12;100379.94;4193902;28;19963;-69
2023/08/29 06:22:59;;;;;;;;;;;;;;;18.04;70.00;100376.97;4193759;28;20011;-69
2023/08/29 06:25:04;;;;;;;;;;;;;;;18.04;69.92;100374.22;4194556;28;20035;-69
2023/08/29 06:27:05;;;;;;;;;;;;;;;18.05;70.15;100378.63;4194658;28;20022;-69
2023/08/29 06:29:07;;;;;;;;;;;;;;;18.05;70.07;100380.53;4194029;28;20428;-69
2023/08/29 06:31:09;;;;;;;;;;;;;;;18.05;70.19;100378.63;4194741;28;20023;-68
2023/08/29 06:33:11;;;;;;;;;;;;;;;18.06;70.25;100382.19;4194406;28;20011;-69
2023/08/29 06:35:14;;;;;;;;;;;;;;;18.06;70.44;100383.03;4194178;28;20024;-69
2023/08/29 06:37:17;;;;;;;;;;;;;;;18.08;70.40;100390.97;4194113;28;20011;-69
2023/08/29 06:39:19;;;;;;;;;;;;;;;18.08;70.37;100393.72;4193151;28;20014;-69
2023/08/29 06:41:21;;;;;;;;;;;;;;;18.07;70.80;100401.09;4194172;28;19924;-69
2023/08/29 06:43:23;;;;;;;;;;;;;;;18.08;70.61;100402.75;4194921;28;20015;-69
2023/08/29 06:45:25;;;;;;;;;;;;;;;18.08;70.60;100400.00;4189964;28;20011;-69
2023/08/29 06:47:27;;;;;;;;;;;;;;;18.10;70.58;100402.50;4190439;28;20025;-69
2023/08/29 06:49:29;;;;;;;;;;;;;;;18.11;70.42;100415.13;4186437;28;20024;-71
2023/08/29 06:51:31;;;;;;;;;;;;;;;18.11;70.15;100415.94;4191434;28;20019;-71
2023/08/29 06:53:35;;;;;;;;;;;;;;;18.11;69.76;100420.56;4192406;28;20019;-71
2023/08/29 06:55:37;;;;;;;;;;;;;;;18.12;69.94;100425.81;4192048;28;20027;-72
2023/08/29 06:57:39;;;;;;;;;;;;;;;18.13;69.98;100432.91;4193787;28;20036;-72
2023/08/29 06:59:41;;;;;;;;;;;;;;;18.14;70.11;100447.44;4190643;28;20030;-72
2023/08/29 07:01:43;;;;;;;;;;;;;;;18.15;69.82;100444.47;4192949;28;19931;-72
2023/08/29 07:03:46;;;;;;;;;;;;;;;18.15;69.64;100457.28;4192960;28;20011;-71
2023/08/29 07:05:49;;;;;;;;;;;;;;;18.16;69.92;100467.16;4192976;28;20343;-70
2023/08/29 07:07:52;;;;;;;;;;;;;;;18.16;69.89;100470.72;4191964;28;20021;-72
2023/08/29 07:09:55;;;;;;;;;;;;;;;18.17;70.17;100477.84;4193427;28;20023;-71
2023/08/29 07:11:57;;;;;;;;;;;;;;;18.18;69.90;100475.94;4192840;28;20027;-70
2023/08/29 07:14:00;;;;;;;;;;;;;;;18.19;69.81;100480.34;4190942;28;20025;-71
2023/08/29 07:16:04;;;;;;;;;;;;;;;18.19;69.90;100480.34;4194458;28;20434;-70
2023/08/29 07:18:06;;;;;;;;;;;;;;;18.19;70.07;100481.19;4193144;28;20023;-70
2023/08/29 07:20:08;;;;;;;;;;;;;;;18.19;70.42;100483.09;4194329;28;20007;-70
2023/08/29 07:22:11;;;;;;;;;;;;;;;18.17;70.09;100491.53;4194353;28;19924;-70
2023/08/29 07:24:13;;;;;;;;;;;;;;;18.19;70.35;100492.13;4194866;28;19924;-71
2023/08/29 07:26:17;;;;;;;;;;;;;;;18.19;70.12;100497.59;4196103;28;20434;-71
2023/08/29 07:28:19;;;;;;;;;;;;;;;18.21;70.33;100497.34;4196240;28;19924;-67
2023/08/29 07:30:22;;;;;;;;;;;;;;;18.22;70.61;100495.47;4197313;28;20024;-68
2023/08/29 07:32:23;;;;;;;;;;;;;;;18.21;70.86;100489.16;4195794;28;20011;-68
2023/08/29 07:34:25;;;;;;;;;;;;;;;18.21;70.62;100482.84;4195704;28;19968;-68
2023/08/29 07:36:28;;;;;;;;;;;;;;;18.23;70.46;100480.72;4195620;28;20011;-68
2023/08/29 07:38:31;;;;;;;;;;;;;;;18.23;70.52;100486.19;4194613;28;20338;-69
2023/08/29 07:40:33;;;;;;;;;;;;;;;18.22;70.70;100484.53;4188393;28;20375;-68
2023/08/29 07:42:37;;;;;;;;;;;;;;;18.22;70.74;100482.63;4196283;28;19924;-68
2023/08/29 07:44:38;;;;;;;;;;;;;;;18.21;71.05;100478.22;4196370;28;20020;-69
2023/08/29 07:46:40;;;;;;;;;;;;;;;18.22;71.09;100479.06;4196836;28;19924;-68
2023/08/29 07:48:42;;;;;;;;;;;;;;;18.22;71.04;100479.88;4195347;28;20054;-69
2023/08/29 07:50:44;;;;;;;;;;;;;;;18.22;71.26;100485.34;4212033;28;20011;-68
2023/08/29 07:52:46;;;;;;;;;;;;;;;18.24;71.31;100479.66;4196703;28;20018;-68
2023/08/29 07:54:48;;;;;;;;;;;;;;;18.24;71.01;100480.47;4195811;28;20051;-69
2023/08/29 07:56:49;;;;;;;;;;;;;;;18.26;71.11;100480.25;4193128;28;20022;-69
2023/08/29 07:58:53;;;;;;;;;;;;;;;18.26;71.28;100483.84;4195494;28;20022;-69
2023/08/29 08:00:55;;;;;;;;;;;;;;;18.26;71.55;100486.56;4196377;28;20023;-69
2023/08/29 08:02:56;;;;;;;;;;;;;;;18.27;71.48;100487.38;4196738;28;19928;-69
2023/08/29 08:04:58;;;;;;;;;;;;;;;18.28;71.33;100481.69;4196851;28;19971;-69
2023/08/29 08:07:00;;;;;;;;;;;;;;;18.29;71.20;100475.16;4196226;28;20442;-69
2023/08/29 08:09:03;;;;;;;;;;;;;;;18.29;71.21;100466.97;4194707;28;20019;-68
2023/08/29 08:11:05;;;;;;;;;;;;;;;18.29;71.06;100468.84;4195514;28;20014;-68
2023/08/29 08:13:08;;;;;;;;;;;;;;;18.30;70.83;100485.00;4196733;28;20364;-68
2023/08/29 08:15:11;;;;;;;;;;;;;;;18.30;71.06;100479.53;4197683;28;20360;-69
2023/08/29 08:17:13;;;;;;;;;;;;;;;18.31;71.12;100483.13;4197508;28;20019;-68
2023/08/29 08:19:15;;;;;;;;;;;;;;;18.32;71.41;100476.56;4196465;28;20451;-68
2023/08/29 08:21:20;;;;;;;;;;;;;;;18.32;71.92;100473.84;4194769;28;20019;-69
2023/08/29 08:23:22;;;;;;;;;;;;;;;18.31;71.85;100475.75;4196004;28;20365;-68
2023/08/29 08:25:24;;;;;;;;;;;;;;;18.33;71.56;100475.53;4195639;28;20427;-69
2023/08/29 08:27:26;;;;;;;;;;;;;;;18.32;71.55;100476.56;4192678;28;20016;-68
2023/08/29 08:29:28;;;;;;;;;;;;;;;18.33;71.03;100468.13;4195383;28;20474;-67
2023/08/29 08:31:32;;;;;;;;;;;;;;;18.33;70.92;100473.59;4196177;28;20363;-67
2023/08/29 08:33:34;;;;;;;;;;;;;;;18.33;70.99;100490.00;4195803;28;19959;-68
2023/08/29 08:35:36;;;;;;;;;;;;;;;18.34;70.85;100490.88;4194640;28;20063;-68
2023/08/29 08:37:41;;;;;;;;;;;;;;;18.34;71.19;100485.41;4193822;28;20020;-68
2023/08/29 08:39:43;;;;;;;;;;;;;;;18.34;71.29;100478.00;4188759;28;19952;-68
2023/08/29 08:41:45;;;;;;;;;;;;;;;18.34;71.57;100469.81;4192558;28;20450;-67
2023/08/29 08:43:47;;;;;;;;;;;;;;;18.35;71.58;100470.63;4191233;28;19967;-67
2023/08/29 08:45:51;;;;;;;;;;;;;;;18.36;71.65;100466.84;4191969;28;20015;-67
2023/08/29 08:47:54;;;;;;;;;;;;;;;18.36;71.85;100467.66;4193458;28;20016;-67
2023/08/29 08:49:57;;;;;;;;;;;;;;;18.37;71.46;100463.06;4188813;28;20470;-68
2023/08/29 08:51:59;;;;;;;;;;;;;;;18.38;71.72;100459.22;4194794;28;20032;-68
2023/08/29 08:54:01;;;;;;;;;;;;;;;18.38;71.99;100456.50;4195368;28;20011;-68
2023/08/29 08:56:03;;;;;;;;;;;;;;;18.39;72.01;100460.09;4195060;28;20023;-66
2023/08/29 08:58:08;;;;;;;;;;;;;;;18.39;72.36;100460.09;4194071;28;20449;-68
2023/08/29 09:00:11;;;;;;;;;;;;;;;18.39;71.92;100462.81;4194084;28;20348;-67
2023/08/29 09:02:13;;;;;;;;;;;;;;;18.37;71.92;100461.16;4193029;28;20023;-68
2023/08/29 09:04:17;;;;;;;;;;;;;;;18.39;71.94;100460.91;4178824;28;20329;-68
2023/08/29 09:06:19;;;;;;;;;;;;;;;18.41;72.22;100455.22;4195999;28;20019;-68
2023/08/29 09:08:22;;;;;;;;;;;;;;;18.44;72.24;100457.47;4193481;28;20059;-68
2023/08/29 09:10:24;;;;;;;;;;;;;;;18.46;71.84;100458.06;4194553;28;20023;-68
2023/08/29 09:12:26;;;;;;;;;;;;;;;18.47;72.65;100457.81;4195019;28;20422;-68
2023/08/29 09:14:28;;;;;;;;;;;;;;;18.50;72.71;100454.63;4195420;28;20031;-68
2023/08/29 09:16:30;;;;;;;;;;;;;;;18.52;73.01;100444.25;4194512;28;20019;-68
2023/08/29 09:18:32;;;;;;;;;;;;;;;18.54;72.71;100442.16;4193573;28;20007;-68
2023/08/29 09:20:35;;;;;;;;;;;;;;;18.57;72.83;100438.06;4193383;28;20023;-67
2023/08/29 09:22:37;;;;;;;;;;;;;;;18.59;72.88;100440.56;4194663;28;20031;-67
2023/08/29 09:24:39;;;;;;;;;;;;;;;18.61;72.98;100438.47;4193482;28;19928;-67
2023/08/29 09:26:41;;;;;;;;;;;;;;;18.63;73.19;100428.94;4194327;28;20099;-67
2023/08/29 09:28:43;;;;;;;;;;;;;;;18.65;72.98;100429.53;4194146;28;19935;-68
2023/08/29 09:30:44;;;;;;;;;;;;;;;18.66;72.58;100436.66;4195389;28;20027;-68
2023/08/29 09:32:47;;;;;;;;;;;;;;;18.69;71.89;100430.72;4194910;28;19942;-68
2023/08/29 09:34:49;;;;;;;;;;;;;;;18.71;71.83;100425.84;4194961;28;20028;-68
2023/08/29 09:36:52;;;;;;;;;;;;;;;18.73;72.05;100436.56;4195618;28;20023;-68
2023/08/29 09:38:58;;;;;;;;;;;;;;;18.75;72.06;100441.78;4192194;28;20011;-68
2023/08/29 09:41:00;;;;;;;;;;;;;;;18.75;71.65;100447.25;4192684;28;20338;-68
2023/08/29 09:43:02;;;;;;;;;;;;;;;18.75;71.23;100448.09;4195915;28;20357;-68
2023/08/29 09:45:07;;;;;;;;;;;;;;;18.75;71.23;100456.28;4193845;28;19929;-67
2023/08/29 09:47:09;;;;;;;;;;;;;;;18.76;71.04;100454.38;4194277;28;20011;-68
2023/08/29 09:49:11;;;;;;;;;;;;;;;18.75;70.98;100450.00;4194852;28;20025;-69
2023/08/29 09:51:14;;;;;;;;;;;;;;;18.75;70.43;100444.53;4194987;28;20462;-68
2023/08/29 09:53:18;;;;;;;;;;;;;;;18.73;70.63;100437.38;4193377;28;20039;-68
2023/08/29 09:55:23;;;;;;;;;;;;;;;18.72;70.56;100430.22;4194566;28;20359;-68
2023/08/29 09:57:27;;;;;;;;;;;;;;;18.73;70.44;100437.38;4194528;28;20019;-68
2023/08/29 09:59:29;;;;;;;;;;;;;;;18.74;70.44;100435.47;4194613;28;20015;-68
2023/08/29 10:01:31;;;;;;;;;;;;;;;18.73;70.65;100445.59;4191565;28;20004;-68
2023/08/29 10:03:33;;;;;;;;;;;;;;;18.73;70.92;100453.78;4194572;28;20019;-68
2023/08/29 10:05:36;;;;;;;;;;;;;;;18.73;70.87;100445.59;4194009;28;19990;-68
2023/08/29 10:07:38;;;;;;;;;;;;;;;18.75;70.57;100447.25;4190913;28;20417;-68
2023/08/29 10:09:41;;;;;;;;;;;;;;;18.75;70.47;100419.91;4191747;28;20015;-68
2023/08/29 10:11:43;;;;;;;;;;;;;;;18.76;70.57;100410.59;4193505;28;20607;-68
2023/08/29 10:13:45;;;;;;;;;;;;;;;18.76;70.49;100399.66;4192227;28;20020;-69
2023/08/29 10:15:48;;;;;;;;;;;;;;;18.77;70.80;100399.44;4193784;28;20015;-68
2023/08/29 10:17:50;;;;;;;;;;;;;;;18.76;70.21;100408.72;4194449;28;20369;-68
2023/08/29 10:19:52;;;;;;;;;;;;;;;18.78;70.69;100411.19;4193375;28;20011;-68
2023/08/29 10:21:54;;;;;;;;;;;;;;;18.78;70.47;100422.13;4193638;28;20015;-68
2023/08/29 10:23:56;;;;;;;;;;;;;;;18.77;70.34;100415.84;4194553;28;20015;-68
2023/08/29 10:26:00;;;;;;;;;;;;;;;18.78;70.35;100411.19;4193066;28;20070;-69
2023/08/29 10:28:03;;;;;;;;;;;;;;;18.77;70.21;100420.50;4192525;28;20015;-69